sensor_id;sensor_type;location;lat;lon;timestamp;P1;durP1;ratioP1;P2;durP2;ratioP2
35372;SDS011;21476;51.652;7.852;2022-12-29T00:01:51;2.15;;;1.20;;
35372;SDS011;21476;51.652;7.852;2022-12-29T00:04:17;2.50;;;1.08;;
35372;SDS011;21476;51.652;7.852;2022-12-29T00:06:43;2.63;;;1.20;;
35372;SDS011;21476;51.652;7.852;2022-12-29T00:09:12;1.55;;;0.88;;
35372;SDS011;21476;51.652;7.852;2022-12-29T00:11:39;2.65;;;1.00;;
35372;SDS011;21476;51.652;7.852;2022-12-29T00:14:05;2.15;;;0.98;;
35372;SDS011;21476;51.652;7.852;2022-12-29T00:16:51;2.60;;;1.27;;
35372;SDS011;21476;51.652;7.852;2022-12-29T00:19:17;1.80;;;0.80;;
35372;SDS011;21476;51.652;7.852;2022-12-29T00:22:01;1.20;;;0.90;;
35372;SDS011;21476;51.652;7.852;2022-12-29T00:24:45;1.98;;;0.93;;
35372;SDS011;21476;51.652;7.852;2022-12-29T00:27:30;1.73;;;0.93;;
35372;SDS011;21476;51.652;7.852;2022-12-29T00:30:16;2.17;;;0.88;;
35372;SDS011;21476;51.652;7.852;2022-12-29T00:33:13;1.95;;;1.15;;
35372;SDS011;21476;51.652;7.852;2022-12-29T00:36:10;2.03;;;0.77;;
35372;SDS011;21476;51.652;7.852;2022-12-29T00:38:41;1.10;;;0.73;;
35372;SDS011;21476;51.652;7.852;2022-12-29T00:41:30;1.00;;;0.70;;
35372;SDS011;21476;51.652;7.852;2022-12-29T00:44:14;2.78;;;0.77;;
35372;SDS011;21476;51.652;7.852;2022-12-29T00:46:40;1.25;;;0.80;;
35372;SDS011;21476;51.652;7.852;2022-12-29T00:49:07;3.58;;;0.70;;
35372;SDS011;21476;51.652;7.852;2022-12-29T00:51:53;1.73;;;0.80;;
35372;SDS011;21476;51.652;7.852;2022-12-29T00:54:20;0.88;;;0.60;;
35372;SDS011;21476;51.652;7.852;2022-12-29T00:56:49;1.00;;;0.65;;
35372;SDS011;21476;51.652;7.852;2022-12-29T00:59:16;1.33;;;0.70;;
35372;SDS011;21476;51.652;7.852;2022-12-29T01:01:42;0.77;;;0.60;;
35372;SDS011;21476;51.652;7.852;2022-12-29T01:04:09;0.75;;;0.52;;
35372;SDS011;21476;51.652;7.852;2022-12-29T01:06:35;2.58;;;0.82;;
35372;SDS011;21476;51.652;7.852;2022-12-29T01:09:02;0.90;;;0.50;;
35372;SDS011;21476;51.652;7.852;2022-12-29T01:11:52;1.10;;;0.45;;
35372;SDS011;21476;51.652;7.852;2022-12-29T01:14:18;0.50;;;0.50;;
35372;SDS011;21476;51.652;7.852;2022-12-29T01:16:44;2.00;;;0.47;;
35372;SDS011;21476;51.652;7.852;2022-12-29T01:19:10;0.93;;;0.50;;
35372;SDS011;21476;51.652;7.852;2022-12-29T01:21:36;1.80;;;0.68;;
35372;SDS011;21476;51.652;7.852;2022-12-29T01:24:02;0.90;;;0.60;;
35372;SDS011;21476;51.652;7.852;2022-12-29T01:26:28;0.65;;;0.57;;
35372;SDS011;21476;51.652;7.852;2022-12-29T01:28:54;0.60;;;0.50;;
35372;SDS011;21476;51.652;7.852;2022-12-29T01:31:19;1.08;;;0.40;;
35372;SDS011;21476;51.652;7.852;2022-12-29T01:33:45;1.15;;;0.52;;
35372;SDS011;21476;51.652;7.852;2022-12-29T01:36:11;1.23;;;0.75;;
35372;SDS011;21476;51.652;7.852;2022-12-29T01:38:39;1.05;;;0.60;;
35372;SDS011;21476;51.652;7.852;2022-12-29T01:41:06;0.73;;;0.50;;
35372;SDS011;21476;51.652;7.852;2022-12-29T01:51:33;1.13;;;0.40;;
35372;SDS011;21476;51.652;7.852;2022-12-29T01:54:04;0.55;;;0.50;;
35372;SDS011;21476;51.652;7.852;2022-12-29T01:56:34;0.85;;;0.50;;
35372;SDS011;21476;51.652;7.852;2022-12-29T01:59:02;0.73;;;0.60;;
35372;SDS011;21476;51.652;7.852;2022-12-29T02:01:31;1.48;;;0.55;;
35372;SDS011;21476;51.652;7.852;2022-12-29T02:03:57;0.73;;;0.60;;
35372;SDS011;21476;51.652;7.852;2022-12-29T02:06:25;0.52;;;0.50;;
35372;SDS011;21476;51.652;7.852;2022-12-29T02:09:02;0.75;;;0.40;;
35372;SDS011;21476;51.652;7.852;2022-12-29T02:11:28;1.00;;;0.50;;
35372;SDS011;21476;51.652;7.852;2022-12-29T02:13:55;1.02;;;0.30;;
35372;SDS011;21476;51.652;7.852;2022-12-29T02:24:45;0.32;;;0.30;;
35372;SDS011;21476;51.652;7.852;2022-12-29T02:32:59;0.20;;;0.20;;
35372;SDS011;21476;51.652;7.852;2022-12-29T02:35:40;0.32;;;0.32;;
35372;SDS011;21476;51.652;7.852;2022-12-29T02:41:07;0.60;;;0.50;;
35372;SDS011;21476;51.652;7.852;2022-12-29T02:44:39;0.40;;;0.40;;
35372;SDS011;21476;51.652;7.852;2022-12-29T02:52:04;1.20;;;0.65;;
35372;SDS011;21476;51.652;7.852;2022-12-29T02:54:48;1.58;;;0.38;;
35372;SDS011;21476;51.652;7.852;2022-12-29T02:59:46;0.32;;;0.32;;
35372;SDS011;21476;51.652;7.852;2022-12-29T03:10:52;0.32;;;0.32;;
35372;SDS011;21476;51.652;7.852;2022-12-29T03:13:38;1.13;;;0.30;;
35372;SDS011;21476;51.652;7.852;2022-12-29T03:19:30;0.85;;;0.60;;
35372;SDS011;21476;51.652;7.852;2022-12-29T03:22:05;0.60;;;0.30;;
35372;SDS011;21476;51.652;7.852;2022-12-29T03:25:00;0.95;;;0.50;;
35372;SDS011;21476;51.652;7.852;2022-12-29T03:27:38;2.80;;;0.70;;
35372;SDS011;21476;51.652;7.852;2022-12-29T03:30:06;2.72;;;0.55;;
35372;SDS011;21476;51.652;7.852;2022-12-29T03:32:38;1.83;;;0.70;;
35372;SDS011;21476;51.652;7.852;2022-12-29T03:35:09;1.48;;;0.60;;
35372;SDS011;21476;51.652;7.852;2022-12-29T03:37:43;0.82;;;0.47;;
35372;SDS011;21476;51.652;7.852;2022-12-29T03:40:33;1.30;;;0.60;;
35372;SDS011;21476;51.652;7.852;2022-12-29T03:43:01;1.60;;;0.68;;
35372;SDS011;21476;51.652;7.852;2022-12-29T03:45:27;1.58;;;0.63;;
35372;SDS011;21476;51.652;7.852;2022-12-29T03:47:53;0.73;;;0.52;;
35372;SDS011;21476;51.652;7.852;2022-12-29T03:50:18;1.50;;;0.50;;
35372;SDS011;21476;51.652;7.852;2022-12-29T03:52:44;2.42;;;0.65;;
35372;SDS011;21476;51.652;7.852;2022-12-29T03:55:10;1.90;;;0.63;;
35372;SDS011;21476;51.652;7.852;2022-12-29T03:57:35;2.60;;;0.70;;
35372;SDS011;21476;51.652;7.852;2022-12-29T04:00:01;1.75;;;0.60;;
35372;SDS011;21476;51.652;7.852;2022-12-29T04:02:29;1.75;;;0.85;;
35372;SDS011;21476;51.652;7.852;2022-12-29T04:04:55;1.65;;;0.70;;
35372;SDS011;21476;51.652;7.852;2022-12-29T04:07:20;3.08;;;0.80;;
35372;SDS011;21476;51.652;7.852;2022-12-29T04:09:46;3.33;;;0.90;;
35372;SDS011;21476;51.652;7.852;2022-12-29T04:12:11;2.83;;;0.80;;
35372;SDS011;21476;51.652;7.852;2022-12-29T04:14:38;1.95;;;0.73;;
35372;SDS011;21476;51.652;7.852;2022-12-29T04:17:04;1.85;;;0.68;;
35372;SDS011;21476;51.652;7.852;2022-12-29T04:19:29;1.70;;;0.70;;
35372;SDS011;21476;51.652;7.852;2022-12-29T04:21:55;1.23;;;0.65;;
35372;SDS011;21476;51.652;7.852;2022-12-29T04:24:20;0.85;;;0.57;;
35372;SDS011;21476;51.652;7.852;2022-12-29T04:26:46;2.92;;;0.60;;
35372;SDS011;21476;51.652;7.852;2022-12-29T04:29:11;1.38;;;0.50;;
35372;SDS011;21476;51.652;7.852;2022-12-29T04:31:37;0.80;;;0.45;;
35372;SDS011;21476;51.652;7.852;2022-12-29T04:34:03;2.75;;;0.90;;
35372;SDS011;21476;51.652;7.852;2022-12-29T04:36:28;1.17;;;0.60;;
35372;SDS011;21476;51.652;7.852;2022-12-29T04:38:54;1.02;;;0.75;;
35372;SDS011;21476;51.652;7.852;2022-12-29T04:41:19;0.65;;;0.50;;
35372;SDS011;21476;51.652;7.852;2022-12-29T04:43:45;2.70;;;0.60;;
35372;SDS011;21476;51.652;7.852;2022-12-29T04:46:11;2.05;;;0.52;;
35372;SDS011;21476;51.652;7.852;2022-12-29T04:48:37;1.48;;;0.73;;
35372;SDS011;21476;51.652;7.852;2022-12-29T04:51:02;1.38;;;0.60;;
35372;SDS011;21476;51.652;7.852;2022-12-29T04:53:28;0.77;;;0.57;;
35372;SDS011;21476;51.652;7.852;2022-12-29T04:55:54;0.93;;;0.45;;
35372;SDS011;21476;51.652;7.852;2022-12-29T04:58:20;0.95;;;0.50;;
35372;SDS011;21476;51.652;7.852;2022-12-29T05:00:47;3.50;;;0.50;;
35372;SDS011;21476;51.652;7.852;2022-12-29T05:03:12;1.58;;;0.65;;
35372;SDS011;21476;51.652;7.852;2022-12-29T05:05:38;1.23;;;0.85;;
35372;SDS011;21476;51.652;7.852;2022-12-29T05:08:04;0.95;;;0.57;;
35372;SDS011;21476;51.652;7.852;2022-12-29T05:10:29;2.67;;;0.60;;
35372;SDS011;21476;51.652;7.852;2022-12-29T05:12:55;2.05;;;0.70;;
35372;SDS011;21476;51.652;7.852;2022-12-29T05:15:22;2.45;;;0.70;;
35372;SDS011;21476;51.652;7.852;2022-12-29T05:17:48;3.60;;;1.27;;
35372;SDS011;21476;51.652;7.852;2022-12-29T05:20:13;1.10;;;0.50;;
35372;SDS011;21476;51.652;7.852;2022-12-29T05:22:39;1.77;;;0.73;;
35372;SDS011;21476;51.652;7.852;2022-12-29T05:25:04;1.10;;;0.60;;
35372;SDS011;21476;51.652;7.852;2022-12-29T05:27:30;2.58;;;0.50;;
35372;SDS011;21476;51.652;7.852;2022-12-29T05:29:56;1.77;;;0.57;;
35372;SDS011;21476;51.652;7.852;2022-12-29T05:32:21;1.63;;;0.88;;
35372;SDS011;21476;51.652;7.852;2022-12-29T05:34:47;1.67;;;0.90;;
35372;SDS011;21476;51.652;7.852;2022-12-29T05:37:12;0.85;;;0.55;;
35372;SDS011;21476;51.652;7.852;2022-12-29T05:39:38;0.75;;;0.60;;
35372;SDS011;21476;51.652;7.852;2022-12-29T05:42:04;1.42;;;0.70;;
35372;SDS011;21476;51.652;7.852;2022-12-29T05:44:30;1.38;;;0.40;;
35372;SDS011;21476;51.652;7.852;2022-12-29T05:46:55;1.55;;;0.80;;
35372;SDS011;21476;51.652;7.852;2022-12-29T05:49:21;2.47;;;0.70;;
35372;SDS011;21476;51.652;7.852;2022-12-29T05:51:46;1.77;;;0.73;;
35372;SDS011;21476;51.652;7.852;2022-12-29T05:54:12;1.27;;;0.68;;
35372;SDS011;21476;51.652;7.852;2022-12-29T05:56:38;1.83;;;0.88;;
35372;SDS011;21476;51.652;7.852;2022-12-29T05:59:03;2.58;;;1.23;;
35372;SDS011;21476;51.652;7.852;2022-12-29T06:01:29;2.08;;;0.85;;
35372;SDS011;21476;51.652;7.852;2022-12-29T06:03:54;1.42;;;0.60;;
35372;SDS011;21476;51.652;7.852;2022-12-29T06:06:20;1.33;;;0.88;;
35372;SDS011;21476;51.652;7.852;2022-12-29T06:08:46;1.30;;;0.60;;
35372;SDS011;21476;51.652;7.852;2022-12-29T06:11:11;1.70;;;0.82;;
35372;SDS011;21476;51.652;7.852;2022-12-29T06:13:37;4.22;;;0.93;;
35372;SDS011;21476;51.652;7.852;2022-12-29T06:16:03;2.03;;;0.73;;
35372;SDS011;21476;51.652;7.852;2022-12-29T06:18:29;1.38;;;0.65;;
35372;SDS011;21476;51.652;7.852;2022-12-29T06:20:58;2.90;;;0.65;;
35372;SDS011;21476;51.652;7.852;2022-12-29T06:23:28;4.30;;;1.10;;
35372;SDS011;21476;51.652;7.852;2022-12-29T06:25:54;1.13;;;0.50;;
35372;SDS011;21476;51.652;7.852;2022-12-29T06:28:20;1.00;;;0.52;;
35372;SDS011;21476;51.652;7.852;2022-12-29T06:30:45;1.65;;;0.70;;
35372;SDS011;21476;51.652;7.852;2022-12-29T06:33:11;1.55;;;0.70;;
35372;SDS011;21476;51.652;7.852;2022-12-29T06:35:37;2.45;;;0.80;;
35372;SDS011;21476;51.652;7.852;2022-12-29T06:38:03;3.08;;;0.88;;
35372;SDS011;21476;51.652;7.852;2022-12-29T06:40:29;2.08;;;0.63;;
35372;SDS011;21476;51.652;7.852;2022-12-29T06:42:55;1.65;;;1.00;;
35372;SDS011;21476;51.652;7.852;2022-12-29T06:45:20;1.25;;;0.70;;
35372;SDS011;21476;51.652;7.852;2022-12-29T06:47:46;4.43;;;0.65;;
35372;SDS011;21476;51.652;7.852;2022-12-29T06:50:12;2.88;;;0.73;;
35372;SDS011;21476;51.652;7.852;2022-12-29T06:52:37;1.35;;;0.80;;
35372;SDS011;21476;51.652;7.852;2022-12-29T06:55:03;2.40;;;1.00;;
35372;SDS011;21476;51.652;7.852;2022-12-29T06:57:29;3.60;;;0.98;;
35372;SDS011;21476;51.652;7.852;2022-12-29T06:59:55;2.63;;;0.77;;
35372;SDS011;21476;51.652;7.852;2022-12-29T07:02:21;3.88;;;0.90;;
35372;SDS011;21476;51.652;7.852;2022-12-29T07:04:50;2.15;;;0.85;;
35372;SDS011;21476;51.652;7.852;2022-12-29T07:07:19;2.08;;;0.77;;
35372;SDS011;21476;51.652;7.852;2022-12-29T07:09:45;0.98;;;0.50;;
35372;SDS011;21476;51.652;7.852;2022-12-29T07:12:11;3.75;;;0.80;;
35372;SDS011;21476;51.652;7.852;2022-12-29T07:14:37;1.98;;;1.08;;
35372;SDS011;21476;51.652;7.852;2022-12-29T07:17:03;2.30;;;0.75;;
35372;SDS011;21476;51.652;7.852;2022-12-29T07:19:31;4.43;;;1.50;;
35372;SDS011;21476;51.652;7.852;2022-12-29T07:21:57;4.75;;;1.10;;
35372;SDS011;21476;51.652;7.852;2022-12-29T07:24:22;5.50;;;1.13;;
35372;SDS011;21476;51.652;7.852;2022-12-29T07:26:50;4.28;;;1.42;;
35372;SDS011;21476;51.652;7.852;2022-12-29T07:29:16;3.83;;;1.02;;
35372;SDS011;21476;51.652;7.852;2022-12-29T07:31:42;3.95;;;0.95;;
35372;SDS011;21476;51.652;7.852;2022-12-29T07:34:08;2.67;;;0.85;;
35372;SDS011;21476;51.652;7.852;2022-12-29T07:36:34;5.15;;;1.05;;
35372;SDS011;21476;51.652;7.852;2022-12-29T07:38:59;5.30;;;1.05;;
35372;SDS011;21476;51.652;7.852;2022-12-29T07:41:26;2.85;;;1.30;;
35372;SDS011;21476;51.652;7.852;2022-12-29T07:43:51;4.53;;;1.45;;
35372;SDS011;21476;51.652;7.852;2022-12-29T07:46:17;3.92;;;1.10;;
35372;SDS011;21476;51.652;7.852;2022-12-29T07:48:42;3.67;;;0.93;;
35372;SDS011;21476;51.652;7.852;2022-12-29T07:51:08;2.97;;;1.55;;
35372;SDS011;21476;51.652;7.852;2022-12-29T07:53:34;6.28;;;1.35;;
35372;SDS011;21476;51.652;7.852;2022-12-29T07:56:00;4.47;;;1.75;;
35372;SDS011;21476;51.652;7.852;2022-12-29T07:58:26;12.30;;;5.05;;
35372;SDS011;21476;51.652;7.852;2022-12-29T08:00:52;21.70;;;9.60;;
35372;SDS011;21476;51.652;7.852;2022-12-29T08:03:22;19.33;;;9.00;;
35372;SDS011;21476;51.652;7.852;2022-12-29T08:05:48;40.10;;;18.83;;
35372;SDS011;21476;51.652;7.852;2022-12-29T08:08:14;6.78;;;2.13;;
35372;SDS011;21476;51.652;7.852;2022-12-29T08:10:39;7.63;;;3.33;;
35372;SDS011;21476;51.652;7.852;2022-12-29T08:13:05;9.65;;;4.97;;
35372;SDS011;21476;51.652;7.852;2022-12-29T08:15:31;10.85;;;5.00;;
35372;SDS011;21476;51.652;7.852;2022-12-29T08:17:56;7.85;;;4.43;;
35372;SDS011;21476;51.652;7.852;2022-12-29T08:20:22;5.97;;;2.60;;
35372;SDS011;21476;51.652;7.852;2022-12-29T08:22:47;8.40;;;1.63;;
35372;SDS011;21476;51.652;7.852;2022-12-29T08:25:13;6.82;;;2.45;;
35372;SDS011;21476;51.652;7.852;2022-12-29T08:27:39;6.03;;;1.90;;
35372;SDS011;21476;51.652;7.852;2022-12-29T08:30:04;9.65;;;1.73;;
35372;SDS011;21476;51.652;7.852;2022-12-29T08:32:31;4.22;;;1.30;;
35372;SDS011;21476;51.652;7.852;2022-12-29T08:34:56;7.97;;;1.02;;
35372;SDS011;21476;51.652;7.852;2022-12-29T08:37:22;4.68;;;1.40;;
35372;SDS011;21476;51.652;7.852;2022-12-29T08:39:48;4.38;;;1.45;;
35372;SDS011;21476;51.652;7.852;2022-12-29T08:42:13;4.45;;;1.25;;
35372;SDS011;21476;51.652;7.852;2022-12-29T08:44:39;2.17;;;0.90;;
35372;SDS011;21476;51.652;7.852;2022-12-29T08:47:04;4.45;;;1.33;;
35372;SDS011;21476;51.652;7.852;2022-12-29T08:49:30;4.32;;;1.40;;
35372;SDS011;21476;51.652;7.852;2022-12-29T08:51:56;5.18;;;1.40;;
35372;SDS011;21476;51.652;7.852;2022-12-29T08:54:22;7.57;;;1.45;;
35372;SDS011;21476;51.652;7.852;2022-12-29T08:56:47;3.85;;;1.17;;
35372;SDS011;21476;51.652;7.852;2022-12-29T08:59:13;8.90;;;1.50;;
35372;SDS011;21476;51.652;7.852;2022-12-29T09:01:39;8.30;;;2.17;;
35372;SDS011;21476;51.652;7.852;2022-12-29T09:04:05;5.05;;;1.35;;
35372;SDS011;21476;51.652;7.852;2022-12-29T09:06:31;6.13;;;1.73;;
35372;SDS011;21476;51.652;7.852;2022-12-29T09:08:57;4.55;;;1.25;;
35372;SDS011;21476;51.652;7.852;2022-12-29T09:11:24;6.03;;;1.30;;
35372;SDS011;21476;51.652;7.852;2022-12-29T09:13:50;6.65;;;1.40;;
35372;SDS011;21476;51.652;7.852;2022-12-29T09:16:17;7.90;;;1.52;;
35372;SDS011;21476;51.652;7.852;2022-12-29T09:18:43;7.57;;;2.05;;
35372;SDS011;21476;51.652;7.852;2022-12-29T09:21:09;9.05;;;1.30;;
35372;SDS011;21476;51.652;7.852;2022-12-29T09:23:36;9.05;;;1.83;;
35372;SDS011;21476;51.652;7.852;2022-12-29T09:26:02;5.43;;;1.63;;
35372;SDS011;21476;51.652;7.852;2022-12-29T09:28:28;6.55;;;2.10;;
35372;SDS011;21476;51.652;7.852;2022-12-29T09:30:54;7.30;;;1.63;;
35372;SDS011;21476;51.652;7.852;2022-12-29T09:33:20;5.78;;;1.27;;
35372;SDS011;21476;51.652;7.852;2022-12-29T09:36:04;5.25;;;1.50;;
35372;SDS011;21476;51.652;7.852;2022-12-29T09:38:30;7.60;;;1.55;;
35372;SDS011;21476;51.652;7.852;2022-12-29T09:40:59;7.80;;;1.83;;
35372;SDS011;21476;51.652;7.852;2022-12-29T09:43:51;8.40;;;1.98;;
35372;SDS011;21476;51.652;7.852;2022-12-29T09:48:47;6.22;;;1.38;;
35372;SDS011;21476;51.652;7.852;2022-12-29T09:51:19;7.45;;;1.52;;
35372;SDS011;21476;51.652;7.852;2022-12-29T09:53:52;7.43;;;1.40;;
35372;SDS011;21476;51.652;7.852;2022-12-29T09:56:26;7.63;;;1.77;;
35372;SDS011;21476;51.652;7.852;2022-12-29T09:58:57;4.18;;;1.15;;
35372;SDS011;21476;51.652;7.852;2022-12-29T10:01:34;7.03;;;1.65;;
35372;SDS011;21476;51.652;7.852;2022-12-29T10:04:06;5.07;;;1.25;;
35372;SDS011;21476;51.652;7.852;2022-12-29T10:09:41;4.38;;;1.63;;
35372;SDS011;21476;51.652;7.852;2022-12-29T10:15:29;7.60;;;1.42;;
35372;SDS011;21476;51.652;7.852;2022-12-29T10:18:17;5.60;;;1.50;;
35372;SDS011;21476;51.652;7.852;2022-12-29T10:20:52;7.57;;;2.00;;
35372;SDS011;21476;51.652;7.852;2022-12-29T10:25:49;7.90;;;1.50;;
35372;SDS011;21476;51.652;7.852;2022-12-29T10:28:22;8.38;;;1.70;;
35372;SDS011;21476;51.652;7.852;2022-12-29T10:30:56;9.82;;;2.67;;
35372;SDS011;21476;51.652;7.852;2022-12-29T10:33:51;6.47;;;1.83;;
35372;SDS011;21476;51.652;7.852;2022-12-29T10:36:33;6.40;;;2.00;;
35372;SDS011;21476;51.652;7.852;2022-12-29T10:41:53;8.30;;;2.17;;
35372;SDS011;21476;51.652;7.852;2022-12-29T10:44:31;9.60;;;1.80;;
35372;SDS011;21476;51.652;7.852;2022-12-29T10:47:02;6.43;;;1.67;;
35372;SDS011;21476;51.652;7.852;2022-12-29T10:49:39;6.97;;;1.83;;
35372;SDS011;21476;51.652;7.852;2022-12-29T10:52:10;8.43;;;1.98;;
35372;SDS011;21476;51.652;7.852;2022-12-29T10:57:43;8.82;;;1.75;;
35372;SDS011;21476;51.652;7.852;2022-12-29T11:00:25;4.47;;;1.73;;
35372;SDS011;21476;51.652;7.852;2022-12-29T11:05:48;8.10;;;1.63;;
35372;SDS011;21476;51.652;7.852;2022-12-29T11:08:39;9.93;;;1.95;;
35372;SDS011;21476;51.652;7.852;2022-12-29T11:11:32;6.72;;;1.30;;
35372;SDS011;21476;51.652;7.852;2022-12-29T11:16:58;8.68;;;1.92;;
35372;SDS011;21476;51.652;7.852;2022-12-29T11:19:29;8.65;;;1.90;;
35372;SDS011;21476;51.652;7.852;2022-12-29T11:22:21;6.78;;;1.67;;
35372;SDS011;21476;51.652;7.852;2022-12-29T11:24:51;6.93;;;1.95;;
35372;SDS011;21476;51.652;7.852;2022-12-29T11:27:33;7.43;;;1.98;;
35372;SDS011;21476;51.652;7.852;2022-12-29T11:32:57;6.10;;;1.58;;
35372;SDS011;21476;51.652;7.852;2022-12-29T11:38:02;8.60;;;2.63;;
35372;SDS011;21476;51.652;7.852;2022-12-29T11:40:32;11.23;;;2.50;;
35372;SDS011;21476;51.652;7.852;2022-12-29T11:46:17;10.20;;;1.60;;
35372;SDS011;21476;51.652;7.852;2022-12-29T11:49:00;9.55;;;1.80;;
35372;SDS011;21476;51.652;7.852;2022-12-29T11:51:52;8.27;;;1.98;;
35372;SDS011;21476;51.652;7.852;2022-12-29T11:54:37;10.15;;;2.60;;
35372;SDS011;21476;51.652;7.852;2022-12-29T11:57:16;10.45;;;1.88;;
35372;SDS011;21476;51.652;7.852;2022-12-29T12:00:20;9.80;;;2.72;;
35372;SDS011;21476;51.652;7.852;2022-12-29T12:02:54;9.27;;;1.80;;
35372;SDS011;21476;51.652;7.852;2022-12-29T12:12:13;4.90;;;2.17;;
35372;SDS011;21476;51.652;7.852;2022-12-29T12:14:51;9.15;;;2.00;;
35372;SDS011;21476;51.652;7.852;2022-12-29T12:17:54;7.65;;;1.70;;
35372;SDS011;21476;51.652;7.852;2022-12-29T12:20:52;8.23;;;1.83;;
35372;SDS011;21476;51.652;7.852;2022-12-29T12:26:03;5.57;;;1.83;;
35372;SDS011;21476;51.652;7.852;2022-12-29T12:28:54;7.07;;;1.88;;
35372;SDS011;21476;51.652;7.852;2022-12-29T12:31:45;9.23;;;1.70;;
35372;SDS011;21476;51.652;7.852;2022-12-29T12:34:19;8.57;;;1.80;;
35372;SDS011;21476;51.652;7.852;2022-12-29T12:37:02;8.13;;;2.47;;
35372;SDS011;21476;51.652;7.852;2022-12-29T12:45:55;9.85;;;2.33;;
35372;SDS011;21476;51.652;7.852;2022-12-29T12:48:53;16.15;;;2.42;;
35372;SDS011;21476;51.652;7.852;2022-12-29T13:00:14;9.60;;;2.10;;
35372;SDS011;21476;51.652;7.852;2022-12-29T13:09:25;10.02;;;2.10;;
35372;SDS011;21476;51.652;7.852;2022-12-29T13:21:02;7.85;;;1.98;;
35372;SDS011;21476;51.652;7.852;2022-12-29T13:23:40;5.50;;;1.15;;
35372;SDS011;21476;51.652;7.852;2022-12-29T13:38:29;8.07;;;1.73;;
35372;SDS011;21476;51.652;7.852;2022-12-29T13:43:58;9.98;;;1.88;;
35372;SDS011;21476;51.652;7.852;2022-12-29T13:46:34;9.18;;;1.70;;
35372;SDS011;21476;51.652;7.852;2022-12-29T13:49:18;8.52;;;1.73;;
35372;SDS011;21476;51.652;7.852;2022-12-29T13:51:55;11.55;;;2.17;;
35372;SDS011;21476;51.652;7.852;2022-12-29T14:12:25;7.85;;;1.92;;
35372;SDS011;21476;51.652;7.852;2022-12-29T14:15:30;7.95;;;1.90;;
35372;SDS011;21476;51.652;7.852;2022-12-29T14:18:24;8.15;;;2.40;;
35372;SDS011;21476;51.652;7.852;2022-12-29T14:26:56;14.68;;;4.35;;
35372;SDS011;21476;51.652;7.852;2022-12-29T14:33:00;11.32;;;2.65;;
35372;SDS011;21476;51.652;7.852;2022-12-29T14:35:39;6.20;;;1.70;;
35372;SDS011;21476;51.652;7.852;2022-12-29T14:38:25;7.88;;;2.22;;
35372;SDS011;21476;51.652;7.852;2022-12-29T14:40:59;11.07;;;2.63;;
35372;SDS011;21476;51.652;7.852;2022-12-29T14:43:59;9.88;;;1.70;;
35372;SDS011;21476;51.652;7.852;2022-12-29T14:46:44;7.47;;;1.80;;
35372;SDS011;21476;51.652;7.852;2022-12-29T14:49:22;11.57;;;2.20;;
35372;SDS011;21476;51.652;7.852;2022-12-29T14:52:19;7.70;;;2.15;;
35372;SDS011;21476;51.652;7.852;2022-12-29T14:58:43;6.32;;;1.95;;
35372;SDS011;21476;51.652;7.852;2022-12-29T15:04:27;7.87;;;1.67;;
35372;SDS011;21476;51.652;7.852;2022-12-29T15:07:22;13.40;;;1.60;;
35372;SDS011;21476;51.652;7.852;2022-12-29T15:10:07;12.88;;;2.00;;
35372;SDS011;21476;51.652;7.852;2022-12-29T15:13:12;11.35;;;2.13;;
35372;SDS011;21476;51.652;7.852;2022-12-29T15:15:47;6.60;;;1.40;;
35372;SDS011;21476;51.652;7.852;2022-12-29T15:18:25;7.85;;;1.85;;
35372;SDS011;21476;51.652;7.852;2022-12-29T15:20:58;7.40;;;1.63;;
35372;SDS011;21476;51.652;7.852;2022-12-29T15:23:42;10.02;;;2.30;;
35372;SDS011;21476;51.652;7.852;2022-12-29T15:26:10;7.82;;;2.40;;
35372;SDS011;21476;51.652;7.852;2022-12-29T15:28:40;11.73;;;1.90;;
35372;SDS011;21476;51.652;7.852;2022-12-29T15:31:10;7.78;;;2.30;;
35372;SDS011;21476;51.652;7.852;2022-12-29T15:33:39;9.43;;;1.67;;
35372;SDS011;21476;51.652;7.852;2022-12-29T15:36:13;9.85;;;2.35;;
35372;SDS011;21476;51.652;7.852;2022-12-29T15:39:01;7.00;;;1.85;;
35372;SDS011;21476;51.652;7.852;2022-12-29T15:44:43;12.48;;;3.53;;
35372;SDS011;21476;51.652;7.852;2022-12-29T15:47:21;11.95;;;3.47;;
35372;SDS011;21476;51.652;7.852;2022-12-29T15:49:58;12.15;;;4.40;;
35372;SDS011;21476;51.652;7.852;2022-12-29T15:52:30;12.25;;;4.25;;
35372;SDS011;21476;51.652;7.852;2022-12-29T15:54:57;9.70;;;3.00;;
35372;SDS011;21476;51.652;7.852;2022-12-29T15:57:26;6.85;;;1.77;;
35372;SDS011;21476;51.652;7.852;2022-12-29T15:59:53;7.97;;;2.10;;
35372;SDS011;21476;51.652;7.852;2022-12-29T16:02:22;7.75;;;1.73;;
35372;SDS011;21476;51.652;7.852;2022-12-29T16:04:49;5.95;;;1.67;;
35372;SDS011;21476;51.652;7.852;2022-12-29T16:07:26;10.10;;;1.98;;
35372;SDS011;21476;51.652;7.852;2022-12-29T16:09:57;10.25;;;2.10;;
35372;SDS011;21476;51.652;7.852;2022-12-29T16:12:26;8.98;;;2.13;;
35372;SDS011;21476;51.652;7.852;2022-12-29T16:17:27;5.93;;;1.27;;
35372;SDS011;21476;51.652;7.852;2022-12-29T16:19:59;9.05;;;2.45;;
35372;SDS011;21476;51.652;7.852;2022-12-29T16:22:46;7.63;;;1.98;;
35372;SDS011;21476;51.652;7.852;2022-12-29T16:27:43;6.72;;;1.83;;
35372;SDS011;21476;51.652;7.852;2022-12-29T16:30:22;8.75;;;1.70;;
35372;SDS011;21476;51.652;7.852;2022-12-29T16:32:54;10.07;;;2.67;;
35372;SDS011;21476;51.652;7.852;2022-12-29T16:35:22;6.70;;;1.88;;
35372;SDS011;21476;51.652;7.852;2022-12-29T16:38:06;9.90;;;2.10;;
35372;SDS011;21476;51.652;7.852;2022-12-29T16:40:59;7.70;;;1.60;;
35372;SDS011;21476;51.652;7.852;2022-12-29T16:46:11;5.70;;;1.55;;
35372;SDS011;21476;51.652;7.852;2022-12-29T16:48:54;6.32;;;2.00;;
35372;SDS011;21476;51.652;7.852;2022-12-29T16:51:28;9.80;;;1.83;;
35372;SDS011;21476;51.652;7.852;2022-12-29T16:53:56;9.02;;;2.00;;
35372;SDS011;21476;51.652;7.852;2022-12-29T16:56:24;10.13;;;2.55;;
35372;SDS011;21476;51.652;7.852;2022-12-29T16:59:39;5.13;;;1.65;;
35372;SDS011;21476;51.652;7.852;2022-12-29T17:02:15;11.25;;;2.60;;
35372;SDS011;21476;51.652;7.852;2022-12-29T17:04:43;8.57;;;1.92;;
35372;SDS011;21476;51.652;7.852;2022-12-29T17:07:20;8.25;;;1.70;;
35372;SDS011;21476;51.652;7.852;2022-12-29T17:09:47;7.45;;;1.60;;
35372;SDS011;21476;51.652;7.852;2022-12-29T17:12:17;6.38;;;1.83;;
35372;SDS011;21476;51.652;7.852;2022-12-29T17:14:58;8.80;;;2.35;;
35372;SDS011;21476;51.652;7.852;2022-12-29T17:17:43;9.23;;;2.40;;
35372;SDS011;21476;51.652;7.852;2022-12-29T17:22:45;7.43;;;2.15;;
35372;SDS011;21476;51.652;7.852;2022-12-29T17:25:12;11.85;;;4.80;;
35372;SDS011;21476;51.652;7.852;2022-12-29T17:30:14;8.63;;;1.70;;
35372;SDS011;21476;51.652;7.852;2022-12-29T17:32:55;10.27;;;2.20;;
35372;SDS011;21476;51.652;7.852;2022-12-29T17:35:23;8.65;;;2.22;;
35372;SDS011;21476;51.652;7.852;2022-12-29T17:37:50;9.88;;;1.90;;
35372;SDS011;21476;51.652;7.852;2022-12-29T17:40:19;9.10;;;2.17;;
35372;SDS011;21476;51.652;7.852;2022-12-29T17:42:54;9.93;;;2.45;;
35372;SDS011;21476;51.652;7.852;2022-12-29T17:45:23;7.10;;;2.08;;
35372;SDS011;21476;51.652;7.852;2022-12-29T17:47:49;8.25;;;2.55;;
35372;SDS011;21476;51.652;7.852;2022-12-29T17:50:18;12.05;;;2.28;;
35372;SDS011;21476;51.652;7.852;2022-12-29T17:52:50;11.00;;;2.42;;
35372;SDS011;21476;51.652;7.852;2022-12-29T17:55:20;11.10;;;1.90;;
35372;SDS011;21476;51.652;7.852;2022-12-29T17:57:48;10.38;;;2.22;;
35372;SDS011;21476;51.652;7.852;2022-12-29T18:00:18;10.80;;;2.33;;
35372;SDS011;21476;51.652;7.852;2022-12-29T18:02:46;6.63;;;1.13;;
35372;SDS011;21476;51.652;7.852;2022-12-29T18:05:33;3.30;;;0.93;;
35372;SDS011;21476;51.652;7.852;2022-12-29T18:07:58;1.00;;;0.52;;
35372;SDS011;21476;51.652;7.852;2022-12-29T18:10:25;2.35;;;1.05;;
35372;SDS011;21476;51.652;7.852;2022-12-29T18:12:53;3.10;;;0.90;;
35372;SDS011;21476;51.652;7.852;2022-12-29T18:15:24;2.15;;;0.77;;